createdAt,value
2019-05-11T00:00:35.557Z,8.80
2019-05-11T00:01:40.671Z,8.80
2019-05-11T00:02:45.621Z,8.80
2019-05-11T00:03:50.766Z,8.70
2019-05-11T00:04:55.865Z,8.70
2019-05-11T00:06:01.024Z,8.70
2019-05-11T00:07:06.291Z,8.70
2019-05-11T00:08:11.302Z,8.70
2019-05-11T00:09:16.274Z,8.70
2019-05-11T00:10:23.491Z,8.70
2019-05-11T00:11:28.297Z,8.60
2019-05-11T00:12:33.273Z,8.70
2019-05-11T00:13:38.375Z,8.70
2019-05-11T00:14:43.616Z,8.70
2019-05-11T00:15:48.778Z,8.60
2019-05-11T00:16:53.731Z,8.60
2019-05-11T00:17:58.825Z,8.60
2019-05-11T00:19:03.917Z,8.60
2019-05-11T00:20:09.184Z,8.60
2019-05-11T00:21:14.112Z,8.60
2019-05-11T00:22:19.188Z,8.60
2019-05-11T00:23:24.248Z,8.60
2019-05-11T00:24:29.711Z,8.50
2019-05-11T00:25:35.040Z,8.50
2019-05-11T00:26:40.132Z,8.60
2019-05-11T00:27:45.287Z,8.60
2019-05-11T00:28:50.339Z,8.50
2019-05-11T00:29:55.341Z,8.50
2019-05-11T00:31:00.440Z,8.50
2019-05-11T00:32:05.624Z,8.50
2019-05-11T00:33:10.593Z,8.50
2019-05-11T00:34:15.703Z,8.50
2019-05-11T00:35:20.761Z,8.50
2019-05-11T00:36:25.937Z,8.50
2019-05-11T00:37:31.039Z,8.50
2019-05-11T00:38:36.132Z,8.50
2019-05-11T00:39:41.108Z,8.50
2019-05-11T00:40:46.217Z,8.50
2019-05-11T00:41:51.323Z,8.50
2019-05-11T00:42:56.390Z,8.50
2019-05-11T00:44:01.555Z,8.50
2019-05-11T00:45:10.007Z,8.50
2019-05-11T00:46:15.425Z,8.50
2019-05-11T00:47:21.389Z,8.50
2019-05-11T00:48:26.997Z,8.50
2019-05-11T00:49:32.020Z,8.50
2019-05-11T00:50:39.836Z,8.60
2019-05-11T00:51:44.386Z,8.60
2019-05-11T00:52:49.438Z,8.60
2019-05-11T00:53:55.338Z,8.60
2019-05-11T00:55:00.576Z,8.60
2019-05-11T00:56:05.997Z,8.60
2019-05-11T00:57:11.106Z,8.60
2019-05-11T00:58:16.472Z,8.70
2019-05-11T00:59:22.175Z,8.70
2019-05-11T01:00:27.395Z,8.60
2019-05-11T01:01:33.625Z,8.60
2019-05-11T01:02:38.679Z,8.60
2019-05-11T01:03:43.625Z,8.70
2019-05-11T01:04:48.630Z,8.60
2019-05-11T01:05:53.687Z,8.70
2019-05-11T01:06:58.725Z,8.60
2019-05-11T01:08:03.656Z,8.70
2019-05-11T01:09:09.044Z,8.70
2019-05-11T01:10:23.813Z,8.70
2019-05-11T01:11:21.176Z,8.70
2019-05-11T01:12:26.116Z,8.70
2019-05-11T01:13:31.045Z,8.70
2019-05-11T01:14:36.178Z,8.70
2019-05-11T01:15:41.117Z,8.70
2019-05-11T01:16:46.217Z,8.70
2019-05-11T01:17:51.256Z,8.70
2019-05-11T01:18:56.188Z,8.70
2019-05-11T01:20:01.597Z,8.80
2019-05-11T01:21:06.718Z,8.80
2019-05-11T01:22:11.813Z,8.80
2019-05-11T01:23:16.900Z,8.70
2019-05-11T01:24:22.001Z,8.70
2019-05-11T01:25:27.084Z,8.70
2019-05-11T01:26:32.513Z,8.80
2019-05-11T01:27:37.868Z,8.80
2019-05-11T01:28:42.970Z,8.80
2019-05-11T01:29:48.050Z,8.80
2019-05-11T01:30:53.477Z,8.80
2019-05-11T01:31:59.113Z,8.80
2019-05-11T01:33:04.514Z,8.80
2019-05-11T01:34:10.275Z,8.80
2019-05-11T01:35:15.798Z,8.80
2019-05-11T01:36:21.466Z,8.80
2019-05-11T01:37:26.731Z,8.80
2019-05-11T01:38:31.830Z,8.90
2019-05-11T01:39:37.101Z,8.90
2019-05-11T01:40:56.465Z,8.90
2019-05-11T01:41:49.347Z,8.90
2019-05-11T01:42:54.575Z,8.90
2019-05-11T01:43:59.729Z,8.90
2019-05-11T01:45:05.358Z,9.00
2019-05-11T01:46:10.607Z,9.00
2019-05-11T01:47:15.864Z,9.00
2019-05-11T01:48:20.917Z,9.00
2019-05-11T01:49:26.039Z,9.00
2019-05-11T01:50:31.514Z,9.00
2019-05-11T01:51:36.850Z,9.00
2019-05-11T01:52:42.792Z,9.00
2019-05-11T01:53:48.248Z,9.00
2019-05-11T01:54:53.333Z,9.10
2019-05-11T01:55:58.870Z,9.00
2019-05-11T01:57:04.612Z,9.10
2019-05-11T01:58:10.027Z,9.10
2019-05-11T01:59:15.874Z,9.10
2019-05-11T02:00:21.429Z,9.10
2019-05-11T02:01:26.717Z,9.10
2019-05-11T02:02:31.858Z,9.10
2019-05-11T02:03:36.919Z,9.10
2019-05-11T02:04:42.036Z,9.10
2019-05-11T02:05:47.280Z,9.10
2019-05-11T02:06:52.507Z,9.10
2019-05-11T02:07:58.918Z,9.10
2019-05-11T02:09:04.810Z,9.20
2019-05-11T02:10:10.116Z,9.20
2019-05-11T02:11:16.263Z,9.10
2019-05-11T02:12:21.454Z,9.10
2019-05-11T02:13:26.689Z,9.20
2019-05-11T02:14:32.050Z,9.20
2019-05-11T02:15:37.196Z,9.10
2019-05-11T02:16:42.520Z,9.20
2019-05-11T02:17:47.730Z,9.20
2019-05-11T02:18:52.761Z,9.20
2019-05-11T02:19:57.944Z,9.20
2019-05-11T02:21:03.128Z,9.10
2019-05-11T02:22:08.473Z,9.20
2019-05-11T02:23:13.580Z,9.20
2019-05-11T02:24:18.821Z,9.20
2019-05-11T02:25:24.044Z,9.20
2019-05-11T02:26:29.139Z,9.20
2019-05-11T02:27:34.356Z,9.20
2019-05-11T02:28:39.423Z,9.20
2019-05-11T02:29:45.178Z,9.20
2019-05-11T02:30:50.546Z,9.20
2019-05-11T02:31:55.989Z,9.20
2019-05-11T02:33:01.127Z,9.20
2019-05-11T02:34:06.549Z,9.20
2019-05-11T02:35:11.778Z,9.20
2019-05-11T02:36:17.107Z,9.20
2019-05-11T02:37:22.658Z,9.20
2019-05-11T02:38:27.730Z,9.20
2019-05-11T02:39:36.162Z,9.10
2019-05-11T02:40:41.257Z,9.20
2019-05-11T02:41:46.574Z,9.20
2019-05-11T02:42:51.815Z,9.20
2019-05-11T02:43:57.227Z,9.10
2019-05-11T02:45:02.463Z,9.20
2019-05-11T02:46:07.884Z,9.10
2019-05-11T02:47:13.360Z,9.20
2019-05-11T02:48:18.738Z,9.20
2019-05-11T02:49:27.714Z,9.20
2019-05-11T02:50:30.944Z,9.20
2019-05-11T02:51:36.420Z,9.20
2019-05-11T02:52:42.297Z,9.20
2019-05-11T02:53:49.491Z,9.20
2019-05-11T02:54:56.454Z,9.20
2019-05-11T02:56:03.873Z,9.20
2019-05-11T02:57:09.278Z,9.20
2019-05-11T02:58:14.633Z,9.20
2019-05-11T02:59:19.696Z,9.20
2019-05-11T03:00:35.390Z,9.20
2019-05-11T03:01:40.459Z,9.20
2019-05-11T03:02:45.836Z,9.20
2019-05-11T03:03:51.027Z,9.20
2019-05-11T03:04:56.144Z,9.20
2019-05-11T03:06:02.131Z,9.20
2019-05-11T03:07:07.307Z,9.20
2019-05-11T03:08:12.507Z,9.20
2019-05-11T03:09:17.772Z,9.20
2019-05-11T03:10:22.872Z,9.20
2019-05-11T03:11:28.509Z,9.20
2019-05-11T03:12:33.685Z,9.20
2019-05-11T03:13:38.852Z,9.20
2019-05-11T03:14:44.135Z,9.20
2019-05-11T03:15:49.229Z,9.20
2019-05-11T03:17:12.168Z,9.20
2019-05-11T03:18:17.467Z,9.20
2019-05-11T03:19:22.983Z,9.20
2019-05-11T03:20:28.204Z,9.20
2019-05-11T03:21:33.440Z,9.20
2019-05-11T03:22:38.732Z,9.20
2019-05-11T03:23:43.767Z,9.20
2019-05-11T03:24:49.072Z,9.20
2019-05-11T03:25:54.349Z,9.20
2019-05-11T03:26:59.486Z,9.20
2019-05-11T03:28:04.752Z,9.20
2019-05-11T03:29:09.917Z,9.20
2019-05-11T03:30:15.454Z,9.30
2019-05-11T03:31:20.698Z,9.20
2019-05-11T03:32:25.823Z,9.20
2019-05-11T03:33:30.904Z,9.20
2019-05-11T03:34:36.146Z,9.20
2019-05-11T03:35:41.844Z,9.20
2019-05-11T03:36:47.595Z,9.20
2019-05-11T03:37:52.657Z,9.20
2019-05-11T03:38:57.855Z,9.20
2019-05-11T03:40:03.178Z,9.20
2019-05-11T03:41:08.557Z,9.20
2019-05-11T03:42:15.339Z,9.20
2019-05-11T03:43:20.614Z,9.20
2019-05-11T03:44:25.878Z,9.20
2019-05-11T03:45:30.956Z,9.20
2019-05-11T03:46:36.828Z,9.10
2019-05-11T03:47:42.238Z,9.20
2019-05-11T03:48:47.485Z,9.20
2019-05-11T03:49:52.478Z,9.20
2019-05-11T03:50:57.708Z,9.20
2019-05-11T03:52:03.111Z,9.20
2019-05-11T03:53:08.257Z,9.20
2019-05-11T03:54:14.579Z,9.20
2019-05-11T03:55:19.798Z,9.20
2019-05-11T03:56:25.020Z,9.20
2019-05-11T03:57:30.064Z,9.20
2019-05-11T03:58:35.410Z,9.20
2019-05-11T03:59:40.694Z,9.20
2019-05-11T04:00:45.818Z,9.20
2019-05-11T04:01:50.961Z,9.30
2019-05-11T04:02:56.200Z,9.20
2019-05-11T04:04:01.975Z,9.20
2019-05-11T04:05:07.460Z,9.30
2019-05-11T04:06:13.313Z,9.30
2019-05-11T04:07:18.900Z,9.30
2019-05-11T04:08:24.166Z,9.30
2019-05-11T04:09:29.410Z,9.30
2019-05-11T04:10:35.096Z,9.30
2019-05-11T04:11:40.227Z,9.30
2019-05-11T04:12:46.037Z,9.30
2019-05-11T04:13:51.803Z,9.40
2019-05-11T04:14:56.978Z,9.40
2019-05-11T04:16:02.192Z,9.40
2019-05-11T04:17:08.048Z,9.40
2019-05-11T04:18:13.290Z,9.40
2019-05-11T04:19:18.401Z,9.30
2019-05-11T04:20:24.180Z,9.30
2019-05-11T04:21:29.585Z,9.30
2019-05-11T04:22:34.672Z,9.30
2019-05-11T04:23:40.088Z,9.30
2019-05-11T04:24:45.339Z,9.40
2019-05-11T04:25:50.484Z,9.40
2019-05-11T04:26:56.128Z,9.40
2019-05-11T04:28:02.085Z,9.40
2019-05-11T04:29:07.597Z,9.40
2019-05-11T04:30:13.395Z,9.40
2019-05-11T04:31:19.056Z,9.40
2019-05-11T04:32:24.998Z,9.40
2019-05-11T04:33:32.979Z,9.40
2019-05-11T04:34:38.660Z,9.40
2019-05-11T04:35:44.542Z,9.40
2019-05-11T04:36:50.490Z,9.40
2019-05-11T04:37:55.765Z,9.40
2019-05-11T04:39:01.442Z,9.50
2019-05-11T04:40:07.467Z,9.50
2019-05-11T04:41:12.757Z,9.50
2019-05-11T04:42:17.986Z,9.50
2019-05-11T04:43:23.135Z,9.50
2019-05-11T04:44:28.388Z,9.50
2019-05-11T04:45:33.625Z,9.50
2019-05-11T04:46:39.318Z,9.50
2019-05-11T04:47:45.010Z,9.50
2019-05-11T04:48:50.415Z,9.50
2019-05-11T04:49:56.178Z,9.50
2019-05-11T04:51:01.774Z,9.50
2019-05-11T04:52:07.685Z,9.50
2019-05-11T04:53:13.519Z,9.60
2019-05-11T04:54:19.195Z,9.60
2019-05-11T04:55:24.510Z,9.60
2019-05-11T04:56:30.185Z,9.60
2019-05-11T04:57:35.448Z,9.60
2019-05-11T04:58:40.903Z,9.60
2019-05-11T04:59:46.715Z,9.60
2019-05-11T05:00:52.380Z,9.60
2019-05-11T05:01:57.751Z,9.60
2019-05-11T05:03:02.923Z,9.60
2019-05-11T05:04:13.956Z,9.70
2019-05-11T05:05:15.834Z,9.70
2019-05-11T05:06:24.055Z,9.70
2019-05-11T05:07:28.394Z,9.70
2019-05-11T05:08:33.897Z,9.70
2019-05-11T05:09:42.923Z,9.70
2019-05-11T05:10:46.334Z,9.60
2019-05-11T05:11:52.016Z,9.70
2019-05-11T05:13:09.755Z,9.70
2019-05-11T05:14:08.371Z,9.70
2019-05-11T05:15:11.571Z,9.70
2019-05-11T05:16:17.396Z,9.70
2019-05-11T05:17:22.666Z,9.70
2019-05-11T05:18:27.729Z,9.70
2019-05-11T05:19:33.330Z,9.70
2019-05-11T05:20:38.595Z,9.70
2019-05-11T05:21:43.723Z,9.70
2019-05-11T05:22:49.189Z,9.70
2019-05-11T05:23:54.469Z,9.70
2019-05-11T05:24:59.691Z,9.70
2019-05-11T05:26:04.911Z,9.70
2019-05-11T05:27:10.164Z,9.70
2019-05-11T05:28:15.451Z,9.70
2019-05-11T05:29:20.715Z,9.70
2019-05-11T05:30:25.892Z,9.70
2019-05-11T05:31:31.824Z,9.70
2019-05-11T05:32:37.187Z,9.80
2019-05-11T05:33:43.031Z,9.70
2019-05-11T05:34:48.908Z,9.80
2019-05-11T05:35:54.697Z,9.80
2019-05-11T05:37:00.647Z,9.80
2019-05-11T05:38:06.538Z,9.80
2019-05-11T05:39:11.677Z,9.80
2019-05-11T05:40:17.254Z,9.70
2019-05-11T05:41:22.898Z,9.80
2019-05-11T05:42:28.737Z,9.90
2019-05-11T05:43:34.445Z,9.90
2019-05-11T05:44:40.297Z,9.90
2019-05-11T05:45:46.194Z,10.00
2019-05-11T05:46:51.936Z,10.00
2019-05-11T05:47:57.308Z,10.00
2019-05-11T05:49:03.188Z,10.10
2019-05-11T05:50:09.139Z,10.10
2019-05-11T05:51:15.105Z,10.10
2019-05-11T05:52:21.023Z,10.10
2019-05-11T05:53:26.469Z,10.10
2019-05-11T05:54:32.276Z,10.00
2019-05-11T05:55:37.740Z,10.10
2019-05-11T05:56:43.173Z,10.10
2019-05-11T05:57:48.963Z,10.10
2019-05-11T05:58:57.669Z,10.10
2019-05-11T06:00:03.559Z,10.20
2019-05-11T06:01:10.165Z,10.20
2019-05-11T06:02:16.099Z,10.20
2019-05-11T06:03:22.408Z,10.20
2019-05-11T06:04:28.154Z,10.20
2019-05-11T06:05:34.159Z,10.30
2019-05-11T06:06:39.769Z,10.30
2019-05-11T06:07:45.447Z,10.30
2019-05-11T06:08:51.210Z,10.40
2019-05-11T06:09:57.086Z,10.40
2019-05-11T06:11:03.341Z,10.40
2019-05-11T06:12:09.189Z,10.40
2019-05-11T06:13:15.056Z,10.50
2019-05-11T06:14:20.964Z,10.50
2019-05-11T06:15:26.934Z,10.50
2019-05-11T06:16:32.771Z,10.50
2019-05-11T06:17:38.656Z,10.50
2019-05-11T06:18:43.939Z,10.40
2019-05-11T06:19:49.874Z,10.40
2019-05-11T06:20:54.852Z,10.40
2019-05-11T06:21:59.963Z,10.50
2019-05-11T06:23:05.041Z,10.50
2019-05-11T06:24:10.466Z,10.60
2019-05-11T06:25:15.877Z,10.70
2019-05-11T06:26:20.965Z,10.80
2019-05-11T06:27:26.118Z,10.80
2019-05-11T06:28:31.198Z,10.70
2019-05-11T06:29:36.547Z,10.70
2019-05-11T06:30:41.546Z,10.70
2019-05-11T06:31:46.538Z,10.70
2019-05-11T06:32:51.673Z,10.60
2019-05-11T06:33:56.990Z,10.50
2019-05-11T06:35:02.697Z,10.50
2019-05-11T06:36:08.251Z,10.50
2019-05-11T06:37:13.607Z,10.40
2019-05-11T06:38:18.632Z,10.40
2019-05-11T06:39:23.862Z,10.40
2019-05-11T06:40:28.988Z,10.40
2019-05-11T06:41:34.081Z,10.40
2019-05-11T06:42:39.194Z,10.40
2019-05-11T06:43:59.550Z,10.40
2019-05-11T06:44:50.880Z,10.40
2019-05-11T06:45:56.143Z,10.40
2019-05-11T06:47:01.235Z,10.50
2019-05-11T06:48:06.266Z,10.50
2019-05-11T06:49:11.358Z,10.50
2019-05-11T06:50:16.760Z,10.50
2019-05-11T06:51:21.711Z,10.50
2019-05-11T06:52:26.926Z,10.60
2019-05-11T06:53:32.001Z,10.50
2019-05-11T06:54:37.151Z,10.50
2019-05-11T06:55:42.319Z,10.50
2019-05-11T06:56:47.384Z,10.60
2019-05-11T06:57:52.427Z,10.60
2019-05-11T06:58:57.666Z,10.60
2019-05-11T07:00:02.874Z,10.60
2019-05-11T07:01:08.445Z,10.60
2019-05-11T07:02:14.199Z,10.60
2019-05-11T07:03:19.597Z,10.70
2019-05-11T07:04:24.873Z,10.80
2019-05-11T07:05:30.849Z,10.80
2019-05-11T07:06:35.954Z,10.90
2019-05-11T07:07:47.397Z,11.00
2019-05-11T07:08:48.495Z,11.00
2019-05-11T07:09:53.615Z,11.00
2019-05-11T07:10:58.937Z,11.00
2019-05-11T07:12:04.316Z,11.00
2019-05-11T07:13:09.433Z,11.00
2019-05-11T07:14:20.521Z,10.90
2019-05-11T07:15:21.869Z,10.90
2019-05-11T07:16:27.201Z,10.80
2019-05-11T07:17:32.570Z,10.80
2019-05-11T07:18:38.064Z,10.80
2019-05-11T07:19:47.679Z,10.70
2019-05-11T07:20:52.615Z,10.70
2019-05-11T07:21:58.200Z,10.70
2019-05-11T07:23:05.895Z,10.80
2019-05-11T07:24:13.245Z,10.80
2019-05-11T07:25:18.385Z,10.80
2019-05-11T07:26:23.758Z,10.90
2019-05-11T07:27:29.493Z,10.90
2019-05-11T07:28:34.578Z,10.90
2019-05-11T07:29:39.759Z,10.90
2019-05-11T07:30:45.143Z,10.80
2019-05-11T07:31:50.630Z,10.70
2019-05-11T07:32:58.143Z,10.70
2019-05-11T07:34:03.119Z,10.70
2019-05-11T07:35:09.499Z,10.60
2019-05-11T07:36:14.661Z,10.60
2019-05-11T07:37:19.933Z,10.60
2019-05-11T07:38:27.650Z,10.70
2019-05-11T07:39:32.467Z,10.70
2019-05-11T07:40:38.466Z,10.60
2019-05-11T07:41:43.804Z,10.60
2019-05-11T07:42:49.360Z,10.60
2019-05-11T07:43:54.448Z,10.50
2019-05-11T07:45:00.061Z,10.50
2019-05-11T07:46:07.633Z,10.50
2019-05-11T07:47:12.594Z,10.60
2019-05-11T07:48:18.763Z,10.50
2019-05-11T07:49:23.884Z,10.60
2019-05-11T07:50:29.178Z,10.60
2019-05-11T07:51:34.599Z,10.60
2019-05-11T07:52:39.820Z,10.60
2019-05-11T07:53:45.140Z,10.60
2019-05-11T07:54:52.973Z,10.70
2019-05-11T07:55:57.872Z,10.80
2019-05-11T07:57:03.881Z,10.90
2019-05-11T07:58:09.814Z,10.90
2019-05-11T07:59:15.101Z,10.90
2019-05-11T08:00:20.361Z,10.90
2019-05-11T08:01:27.955Z,10.90
2019-05-11T08:02:32.770Z,10.90
2019-05-11T08:03:38.973Z,11.00
2019-05-11T08:04:44.933Z,11.10
2019-05-11T08:05:50.365Z,11.20
2019-05-11T08:06:58.144Z,11.20
2019-05-11T08:08:02.562Z,11.30
2019-05-11T08:09:08.842Z,11.30
2019-05-11T08:10:14.687Z,11.30
2019-05-11T08:11:20.450Z,11.30
2019-05-11T08:12:28.266Z,11.30
2019-05-11T08:13:32.354Z,11.30
2019-05-11T08:14:55.769Z,11.20
2019-05-11T08:15:45.281Z,11.20
2019-05-11T08:16:50.484Z,11.20
2019-05-11T08:17:57.774Z,11.10
2019-05-11T08:19:06.620Z,11.10
2019-05-11T08:20:11.025Z,11.10
2019-05-11T08:21:17.876Z,11.10
2019-05-11T08:22:23.530Z,11.20
2019-05-11T08:23:29.057Z,11.30
2019-05-11T08:24:34.408Z,11.30
2019-05-11T08:25:39.879Z,11.40
2019-05-11T08:26:45.111Z,11.50
2019-05-11T08:27:50.290Z,11.70
2019-05-11T08:28:57.704Z,11.80
2019-05-11T08:30:02.342Z,12.00
2019-05-11T08:31:08.197Z,12.00
2019-05-11T08:32:13.465Z,12.10
2019-05-11T08:33:18.975Z,12.10
2019-05-11T08:34:24.449Z,12.10
2019-05-11T08:35:31.353Z,12.10
2019-05-11T08:36:37.971Z,12.10
2019-05-11T08:37:43.368Z,12.10
2019-05-11T08:38:48.795Z,12.00
2019-05-11T08:39:54.102Z,11.90
2019-05-11T08:40:59.853Z,12.00
2019-05-11T08:42:05.777Z,12.00
2019-05-11T08:43:11.633Z,11.90
2019-05-11T08:44:18.217Z,11.80
2019-05-11T08:45:24.841Z,12.00
2019-05-11T08:46:30.333Z,12.10
2019-05-11T08:47:37.579Z,12.10
2019-05-11T08:48:42.574Z,12.00
2019-05-11T08:49:48.487Z,12.00
2019-05-11T08:50:54.049Z,12.20
2019-05-11T08:51:59.846Z,12.40
2019-05-11T08:53:05.389Z,12.60
2019-05-11T08:54:10.828Z,12.70
2019-05-11T08:55:18.985Z,12.70
2019-05-11T08:56:24.530Z,12.90
2019-05-11T08:57:29.647Z,12.90
2019-05-11T08:58:34.668Z,12.80
2019-05-11T08:59:41.428Z,12.70
2019-05-11T09:00:47.795Z,12.80
2019-05-11T09:01:52.932Z,12.90
2019-05-11T09:02:58.395Z,13.00
2019-05-11T09:04:03.498Z,13.00
2019-05-11T09:05:08.702Z,12.90
2019-05-11T09:06:13.680Z,12.80
2019-05-11T09:07:18.657Z,12.80
2019-05-11T09:08:24.683Z,13.00
2019-05-11T09:09:29.718Z,13.00
2019-05-11T09:10:36.975Z,13.00
2019-05-11T09:11:41.790Z,13.10
2019-05-11T09:12:48.836Z,13.10
2019-05-11T09:13:53.394Z,13.10
2019-05-11T09:14:58.346Z,13.00
2019-05-11T09:16:03.333Z,13.00
2019-05-11T09:17:08.504Z,12.90
2019-05-11T09:18:13.469Z,12.90
2019-05-11T09:19:18.380Z,13.00
2019-05-11T09:20:23.352Z,13.10
2019-05-11T09:21:28.320Z,13.00
2019-05-11T09:22:33.296Z,13.00
2019-05-11T09:23:40.768Z,12.90
2019-05-11T09:24:44.949Z,12.90
2019-05-11T09:25:50.040Z,12.90
2019-05-11T09:26:58.640Z,13.00
2019-05-11T09:28:04.007Z,13.00
2019-05-11T09:29:08.960Z,12.80
2019-05-11T09:30:14.241Z,12.80
2019-05-11T09:31:19.239Z,12.90
2019-05-11T09:32:24.486Z,12.90
2019-05-11T09:33:29.564Z,12.90
2019-05-11T09:34:34.583Z,12.90
2019-05-11T09:35:49.630Z,12.80
2019-05-11T09:36:47.959Z,12.90
2019-05-11T09:37:53.348Z,12.90
2019-05-11T09:38:58.403Z,12.90
2019-05-11T09:40:03.762Z,12.90
2019-05-11T09:41:12.147Z,13.00
2019-05-11T09:42:17.902Z,13.00
2019-05-11T09:43:23.690Z,13.00
2019-05-11T09:44:29.052Z,12.80
2019-05-11T09:45:45.883Z,12.90
2019-05-11T09:46:40.789Z,13.10
2019-05-11T09:47:47.719Z,13.10
2019-05-11T09:48:52.454Z,13.10
2019-05-11T09:49:58.209Z,13.10
2019-05-11T09:51:03.574Z,13.00
2019-05-11T09:52:08.829Z,12.90
2019-05-11T09:53:13.890Z,12.60
2019-05-11T09:54:19.043Z,12.30
2019-05-11T09:55:24.003Z,12.10
2019-05-11T09:56:29.290Z,12.00
2019-05-11T09:57:34.443Z,12.00
2019-05-11T09:58:39.635Z,11.90
2019-05-11T09:59:44.677Z,11.90
2019-05-11T10:00:49.803Z,11.90
2019-05-11T10:01:55.134Z,11.80
2019-05-11T10:03:00.196Z,11.80
2019-05-11T10:04:05.377Z,11.80
2019-05-11T10:05:10.667Z,11.80
2019-05-11T10:06:15.701Z,11.70
2019-05-11T10:07:20.661Z,11.70
2019-05-11T10:08:25.792Z,11.70
2019-05-11T10:09:31.009Z,11.80
2019-05-11T10:10:38.136Z,11.80
2019-05-11T10:11:43.042Z,12.00
2019-05-11T10:12:48.619Z,12.00
2019-05-11T10:13:54.838Z,12.20
2019-05-11T10:14:59.904Z,12.40
2019-05-11T10:16:08.070Z,12.50
2019-05-11T10:17:11.955Z,12.50
2019-05-11T10:18:18.590Z,12.70
2019-05-11T10:19:23.813Z,12.80
2019-05-11T10:20:31.444Z,13.10
2019-05-11T10:21:38.522Z,13.20
2019-05-11T10:22:43.164Z,13.40
2019-05-11T10:23:48.926Z,13.50
2019-05-11T10:24:58.238Z,13.60
2019-05-11T10:26:03.492Z,14.00
2019-05-11T10:27:08.590Z,14.00
2019-05-11T10:28:13.774Z,13.80
2019-05-11T10:29:18.831Z,13.90
2019-05-11T10:30:24.052Z,13.80
2019-05-11T10:31:31.088Z,13.60
2019-05-11T10:32:37.933Z,13.40
2019-05-11T10:33:42.849Z,13.30
2019-05-11T10:34:47.979Z,13.30
2019-05-11T10:35:52.993Z,13.30
2019-05-11T10:36:58.261Z,13.40
2019-05-11T10:38:03.441Z,13.40
2019-05-11T10:39:09.979Z,13.40
2019-05-11T10:40:15.345Z,13.40
2019-05-11T10:41:20.470Z,13.60
2019-05-11T10:42:25.537Z,13.60
2019-05-11T10:43:30.587Z,13.70
2019-05-11T10:44:35.692Z,13.70
2019-05-11T10:45:40.765Z,13.60
2019-05-11T10:46:48.195Z,13.60
2019-05-11T10:47:55.730Z,13.30
2019-05-11T10:48:59.545Z,13.20
2019-05-11T10:50:04.911Z,12.90
2019-05-11T10:51:10.786Z,12.90
2019-05-11T10:52:17.846Z,12.80
2019-05-11T10:53:22.563Z,12.80
2019-05-11T10:54:29.931Z,12.70
2019-05-11T10:55:34.976Z,12.70
2019-05-11T10:56:40.056Z,12.70
2019-05-11T10:57:45.130Z,12.50
2019-05-11T10:58:50.163Z,12.60
2019-05-11T10:59:57.953Z,12.70
2019-05-11T11:01:03.083Z,12.70
2019-05-11T11:02:08.249Z,12.70
2019-05-11T11:03:13.330Z,12.70
2019-05-11T11:04:18.599Z,12.70
2019-05-11T11:05:23.813Z,12.70
2019-05-11T11:06:29.942Z,12.80
2019-05-11T11:07:34.933Z,12.80
2019-05-11T11:08:40.003Z,12.90
2019-05-11T11:09:45.047Z,13.00
2019-05-11T11:10:50.013Z,13.00
2019-05-11T11:11:57.728Z,13.10
2019-05-11T11:13:02.411Z,13.20
2019-05-11T11:14:08.688Z,13.30
2019-05-11T11:15:14.241Z,13.30
2019-05-11T11:16:35.033Z,13.30
2019-05-11T11:17:25.989Z,13.40
2019-05-11T11:18:31.071Z,13.40
2019-05-11T11:19:38.079Z,13.30
2019-05-11T11:20:42.798Z,13.30
2019-05-11T11:21:48.812Z,13.40
2019-05-11T11:22:54.009Z,13.50
2019-05-11T11:23:58.966Z,13.60
2019-05-11T11:25:04.122Z,13.60
2019-05-11T11:26:09.284Z,13.70
2019-05-11T11:27:14.338Z,13.80
2019-05-11T11:28:19.469Z,13.80
2019-05-11T11:29:24.488Z,13.90
2019-05-11T11:30:29.580Z,13.90
2019-05-11T11:31:34.621Z,14.10
2019-05-11T11:32:39.589Z,14.00
2019-05-11T11:33:44.655Z,14.10
2019-05-11T11:34:51.851Z,14.20
2019-05-11T11:35:57.974Z,14.20
2019-05-11T11:37:03.287Z,14.10
2019-05-11T11:38:08.813Z,14.00
2019-05-11T11:39:13.975Z,14.10
2019-05-11T11:40:19.248Z,14.10
2019-05-11T11:41:24.247Z,14.30
2019-05-11T11:42:29.485Z,14.50
2019-05-11T11:43:34.700Z,14.70
2019-05-11T11:44:39.912Z,15.00
2019-05-11T11:45:45.358Z,15.10
2019-05-11T11:46:54.859Z,15.20
2019-05-11T11:47:58.048Z,15.30
2019-05-11T11:49:03.326Z,15.20
2019-05-11T11:50:09.257Z,15.00
2019-05-11T11:51:14.729Z,14.40
2019-05-11T11:52:19.779Z,14.30
2019-05-11T11:53:24.942Z,14.60
2019-05-11T11:54:29.906Z,14.90
2019-05-11T11:55:35.048Z,15.20
2019-05-11T11:56:40.038Z,15.50
2019-05-11T11:57:45.251Z,15.70
2019-05-11T11:58:50.243Z,15.90
2019-05-11T11:59:55.288Z,16.10
2019-05-11T12:01:00.455Z,16.10
2019-05-11T12:02:05.527Z,15.90
2019-05-11T12:03:10.666Z,15.80
2019-05-11T12:04:15.738Z,15.80
2019-05-11T12:05:20.968Z,16.00
2019-05-11T12:06:27.955Z,16.00
2019-05-11T12:07:32.848Z,16.10
2019-05-11T12:08:38.872Z,16.20
2019-05-11T12:09:44.068Z,16.40
2019-05-11T12:10:49.127Z,16.30
2019-05-11T12:11:54.191Z,16.50
2019-05-11T12:12:59.312Z,16.60
2019-05-11T12:14:08.673Z,16.70
2019-05-11T12:15:14.469Z,16.60
2019-05-11T12:16:19.688Z,16.20
2019-05-11T12:17:25.058Z,15.60
2019-05-11T12:18:30.292Z,15.50
2019-05-11T12:19:35.314Z,15.40
2019-05-11T12:20:40.773Z,14.80
2019-05-11T12:21:45.818Z,14.60
2019-05-11T12:22:50.939Z,14.40
2019-05-11T12:23:58.376Z,13.90
2019-05-11T12:25:02.733Z,13.80
2019-05-11T12:26:08.547Z,13.80
2019-05-11T12:27:14.784Z,13.80
2019-05-11T12:28:19.942Z,14.00
2019-05-11T12:29:25.088Z,13.90
2019-05-11T12:30:30.284Z,13.80
2019-05-11T12:31:35.263Z,14.00
2019-05-11T12:32:44.647Z,13.90
2019-05-11T12:33:49.802Z,13.90
2019-05-11T12:34:54.979Z,14.00
2019-05-11T12:36:00.073Z,14.00
2019-05-11T12:37:05.278Z,14.20
2019-05-11T12:38:10.469Z,14.40
2019-05-11T12:39:15.577Z,14.70
2019-05-11T12:40:21.323Z,15.00
2019-05-11T12:41:28.038Z,15.20
2019-05-11T12:42:33.311Z,15.40
2019-05-11T12:43:38.441Z,15.70
2019-05-11T12:44:43.552Z,15.70
2019-05-11T12:45:48.772Z,15.90
2019-05-11T12:46:53.864Z,16.00
2019-05-11T12:47:59.031Z,16.20
2019-05-11T12:49:04.123Z,16.10
2019-05-11T12:50:10.277Z,16.00
2019-05-11T12:51:15.564Z,16.10
2019-05-11T12:52:20.744Z,15.90
2019-05-11T12:53:28.158Z,16.20
2019-05-11T12:54:34.109Z,15.90
2019-05-11T12:55:39.421Z,15.80
2019-05-11T12:56:44.461Z,15.60
2019-05-11T12:57:49.494Z,15.60
2019-05-11T12:58:54.491Z,15.60
2019-05-11T12:59:59.656Z,15.50
2019-05-11T13:01:04.879Z,15.60
2019-05-11T13:02:09.972Z,16.10
2019-05-11T13:03:15.001Z,16.90
2019-05-11T13:04:20.031Z,17.50
2019-05-11T13:05:25.205Z,17.90
2019-05-11T13:06:30.317Z,18.10
2019-05-11T13:07:35.800Z,18.10
2019-05-11T13:08:40.861Z,18.00
2019-05-11T13:09:48.267Z,17.50
2019-05-11T13:10:52.474Z,17.20
2019-05-11T13:11:58.758Z,17.20
2019-05-11T13:13:04.013Z,16.80
2019-05-11T13:14:09.054Z,16.40
2019-05-11T13:15:14.840Z,15.70
2019-05-11T13:16:20.039Z,15.50
2019-05-11T13:17:36.594Z,15.70
2019-05-11T13:18:32.239Z,15.80
2019-05-11T13:19:38.608Z,16.00
2019-05-11T13:20:43.968Z,16.30
2019-05-11T13:21:49.153Z,16.50
2019-05-11T13:22:54.413Z,16.80
2019-05-11T13:23:59.555Z,17.30
2019-05-11T13:25:08.357Z,17.60
2019-05-11T13:26:13.486Z,17.80
2019-05-11T13:27:18.828Z,18.20
2019-05-11T13:28:23.866Z,18.20
2019-05-11T13:29:29.042Z,18.20
2019-05-11T13:30:34.230Z,18.00
2019-05-11T13:31:39.386Z,17.40
2019-05-11T13:32:44.361Z,16.80
2019-05-11T13:33:49.639Z,16.30
2019-05-11T13:34:54.725Z,16.00
2019-05-11T13:35:59.807Z,15.80
2019-05-11T13:37:04.947Z,15.60
2019-05-11T13:38:09.999Z,15.90
2019-05-11T13:39:15.021Z,16.50
2019-05-11T13:40:20.330Z,17.00
2019-05-11T13:41:27.466Z,17.30
2019-05-11T13:42:32.688Z,17.40
2019-05-11T13:43:38.596Z,18.00
2019-05-11T13:44:43.817Z,17.80
2019-05-11T13:45:48.907Z,17.70
2019-05-11T13:46:53.975Z,17.30
2019-05-11T13:47:59.457Z,17.10
2019-05-11T13:49:04.540Z,16.80
2019-05-11T13:50:09.967Z,16.80
2019-05-11T13:51:15.366Z,16.80
2019-05-11T13:52:20.538Z,17.00
2019-05-11T13:53:27.481Z,17.40
2019-05-11T13:54:32.253Z,17.50
2019-05-11T13:55:38.806Z,17.20
2019-05-11T13:56:44.043Z,16.80
2019-05-11T13:57:49.066Z,16.30
2019-05-11T13:58:55.482Z,16.50
2019-05-11T14:00:00.688Z,17.00
2019-05-11T14:01:08.015Z,18.10
2019-05-11T14:02:12.525Z,19.20
2019-05-11T14:03:18.405Z,19.50
2019-05-11T14:04:23.620Z,19.30
2019-05-11T14:05:29.047Z,19.30
2019-05-11T14:06:33.964Z,19.40
2019-05-11T14:07:39.377Z,20.30
2019-05-11T14:08:44.371Z,21.30
2019-05-11T14:09:49.814Z,22.60
2019-05-11T14:10:54.645Z,23.00
2019-05-11T14:12:00.133Z,22.70
2019-05-11T14:13:05.382Z,23.10
2019-05-11T14:14:10.648Z,22.30
2019-05-11T14:15:15.623Z,22.90